Hamaritha — PF2437 — position and weather

sailwx.info

Track history (hours):
 
Tides and Currents Weather Stations Pressure Air Temp Water Temp Dewpoint Dewpoint Depression Visibility Wind Speed Wind Dir Waves Ship Positions

Hamaritha

Last reported at 2015-Aug-04 15:33 UTC. Time now 2015-Aug-04 15:55 UTC.
Position N 52°15' E 006°46'.

Length 86 m.

Type: Ship. MMSI: 244700691.

Date/timePositionNaut miles runAvg speedWind from/ knotsBaromVisibWave heightAir tempDewpointWater temp
2015-Aug-04 15:33N 52°15' E 006°46'4 1.4
2015-Aug-04 12:33N 52°15' E 006°40'7 5.3
2015-Aug-04 11:14N 52°11' E 006°30'4 5.2
2015-Aug-04 10:33N 52°10' E 006°24'7 3.4
2015-Aug-04 08:33N 52°10' E 006°13'16 3.9
2015-Aug-04 04:33N 51°58' E 005°56'4 4.2
2015-Aug-04 03:33N 51°58' E 005°49'0 0.0
2015-Aug-04 02:33N 51°58' E 005°49'0 0.0
2015-Aug-04 01:33N 51°58' E 005°49'0 0.0
2015-Aug-04 00:33N 51°58' E 005°49'0 0.0
2015-Aug-03 23:33N 51°58' E 005°49'0 0.0
2015-Aug-03 22:34N 51°58' E 005°49'0 0.0
2015-Aug-03 21:33N 51°58' E 005°49'0 0.0
2015-Aug-03 20:33N 51°58' E 005°49'0 0.0
2015-Aug-03 19:33N 51°58' E 005°49'0 0.0
2015-Aug-03 18:34N 51°58' E 005°49'0 0.0
2015-Aug-03 17:33N 51°58' E 005°49'0 0.0
2015-Aug-03 16:33N 51°58' E 005°49'0 0.0
2015-Aug-03 15:33N 51°58' E 005°49'1 0.5
2015-Aug-03 14:23N 51°58' E 005°48'21 5.1
2015-Aug-03 10:20N 51°59' E 005°14'4 4.9
2015-Aug-03 09:33N 51°59' E 005°08'2 1.7
2015-Aug-03 08:33N 52°00' E 005°06'6 6.0
2015-Aug-03 07:33N 51°58' E 004°57'7 7.1
2015-Aug-03 06:33N 51°55' E 004°46'8 7.5
2015-Aug-03 05:33N 51°54' E 004°34'7 7.4
2015-Aug-03 04:33N 51°54' E 004°22'5 5.5
2015-Aug-03 03:33N 51°54' E 004°13'5 4.6
2015-Aug-03 02:33N 51°56' E 004°07'1 1.0
2015-Aug-03 01:33N 51°57' E 004°07'0 0.0
2015-Aug-03 00:33N 51°57' E 004°07'0 0.0
2015-Aug-02 23:33N 51°57' E 004°07'0 0.0
2015-Aug-02 22:33N 51°57' E 004°07'2 1.7
2015-Aug-02 21:33N 51°56' E 004°09'0 0.0
2015-Aug-02 20:33N 51°56' E 004°09'0 0.0
2015-Aug-02 19:33N 51°56' E 004°09'0 0.0
2015-Aug-02 18:33N 51°56' E 004°09'0 0.0
2015-Aug-02 17:33N 51°56' E 004°09'0 0.0
2015-Aug-02 16:33N 51°56' E 004°09'0 0.0
2015-Aug-02 15:33N 51°56' E 004°09'0 0.0
2015-Aug-02 14:33N 51°56' E 004°09'0 0.0
2015-Aug-02 13:33N 51°56' E 004°09'0 0.0
2015-Aug-02 12:33N 51°56' E 004°09'0 0.0
2015-Aug-02 11:33N 51°56' E 004°09'0 0.0
2015-Aug-02 10:33N 51°56' E 004°09'0 0.0
2015-Aug-02 09:34N 51°56' E 004°09'0 0.0
2015-Aug-02 08:33N 51°56' E 004°09'0 0.0
2015-Aug-02 07:33N 51°56' E 004°09'0 0.0
2015-Aug-02 06:33N 51°56' E 004°09'0 0.0
2015-Aug-02 05:33N 51°56' E 004°09'0 0.0
2015-Aug-02 04:33N 51°56' E 004°09'0 0.0
2015-Aug-02 03:33N 51°56' E 004°09'0 0.0
2015-Aug-02 02:33N 51°56' E 004°09'0 0.0
2015-Aug-02 01:34N 51°56' E 004°09'0 0.0
2015-Aug-02 00:33N 51°56' E 004°09'0 0.0
2015-Aug-01 23:33N 51°56' E 004°09'0 0.0
2015-Aug-01 22:34N 51°56' E 004°09'0 0.0
2015-Aug-01 21:33N 51°56' E 004°09'0 0.0
2015-Aug-01 20:33N 51°56' E 004°09'0 0.0
2015-Aug-01 19:33N 51°56' E 004°09'0 0.0
2015-Aug-01 18:33N 51°56' E 004°09'0 0.0
2015-Aug-01 17:33N 51°56' E 004°09'0 0.0
2015-Aug-01 16:33N 51°56' E 004°09'0 0.0
2015-Aug-01 15:33N 51°56' E 004°09'0 0.0
2015-Aug-01 14:33N 51°56' E 004°09'0 0.0
2015-Aug-01 13:33N 51°56' E 004°09'0 0.0
2015-Aug-01 12:33N 51°56' E 004°09'7 6.5
2015-Aug-01 11:33N 51°52' E 004°17'4 3.9
2015-Aug-01 10:33N 51°49' E 004°21'5 5.1
2015-Aug-01 09:33N 51°46' E 004°15'7 3.3
2015-Aug-01 07:30N 51°39' E 004°20'6 6.8
2015-Aug-01 06:33N 51°35' E 004°12'7 7.4
2015-Aug-01 05:33N 51°28' E 004°14'0 0.0
2015-Aug-01 04:33N 51°28' E 004°14'0 0.0
2015-Aug-01 03:33N 51°28' E 004°14'0 0.0
2015-Aug-01 02:33N 51°28' E 004°14'0 0.0
2015-Jul-31 20:23N 51°28' E 004°14'0 0.0
2015-Jul-31 19:17N 51°28' E 004°14'1 0.9
2015-Jul-31 18:34N 51°27' E 004°14'7 6.5
2015-Jul-31 17:32N 51°21' E 004°18'1 1.2
2015-Jul-31 16:34N 51°20' E 004°18'0 0.0
2015-Jul-31 15:33N 51°20' E 004°18'0 0.0
2015-Jul-31 14:33N 51°20' E 004°18'0 0.0
2015-Jul-31 13:33N 51°20' E 004°18'0 0.0
2015-Jul-31 12:33N 51°20' E 004°18'0 0.0
2015-Jul-31 11:33N 51°20' E 004°18'0 0.0
2015-Jul-31 10:33N 51°20' E 004°18'2 1.8
2015-Jul-31 09:33N 51°21' E 004°18'6 5.8
2015-Jul-31 08:31N 51°27' E 004°14'5 5.2
2015-Jul-31 07:29N 51°32' E 004°14'6 6.0
2015-Jul-31 06:33N 51°38' E 004°13'11 5.4
2015-Jul-31 04:33N 51°42' E 004°29'6 5.5
2015-Jul-31 03:32N 51°43' E 004°38'0 0.0
2015-Jul-31 02:33N 51°43' E 004°38'0 0.0
2015-Jul-31 01:33N 51°43' E 004°38'0 0.0
2015-Jul-31 00:33N 51°43' E 004°38'0 0.0
2015-Jul-30 23:33N 51°43' E 004°38'0 0.0
2015-Jul-30 22:33N 51°43' E 004°38'0 0.1
2015-Jul-30 21:33N 51°43' E 004°38'5 5.3
2015-Jul-30 20:33N 51°46' E 004°45'7 6.8
2015-Jul-30 19:32N 51°50' E 004°54'16 7.9
2015-Jul-30 17:33N 51°49' E 005°20'30 4.2
2015-Jul-30 10:23N 51°60' E 006°06'3 3.2
2015-Jul-30 09:22N 52°03' E 006°07'3 4.1
2015-Jul-30 08:32N 52°05' E 006°10'5 3.1
2015-Jul-30 07:04N 52°10' E 006°11'5 3.4
2015-Jul-30 05:34N 52°10' E 006°20'6 5.5
2015-Jul-30 04:29N 52°11' E 006°29'5 5.2
2015-Jul-30 03:34N 52°14' E 006°36'4 3.8
2015-Jul-30 02:31N 52°15' E 006°42'4 3.9
2015-Jul-30 01:33N 52°15' E 006°48'0 0.0
2015-Jul-30 00:32N 52°15' E 006°48'0 0.0
2015-Jul-29 23:32N 52°15' E 006°48'0 0.0
2015-Jul-29 22:33N 52°15' E 006°48'0 0.0
2015-Jul-29 21:33N 52°15' E 006°48'0 0.0
2015-Jul-29 20:33N 52°15' E 006°48'0 0.0
2015-Jul-29 19:32N 52°15' E 006°48'0 0.0
2015-Jul-29 18:32N 52°15' E 006°48'5 3.4
2015-Jul-29 17:07N 52°15' E 006°40'4 7.4
2015-Jul-29 16:33N 52°13' E 006°34'7 6.7
2015-Jul-29 15:33N 52°10' E 006°24'0 0.0
2015-Jul-29 14:33N 52°10' E 006°24'0 0.0
2015-Jul-29 13:33N 52°10' E 006°24'0 0.0
2015-Jul-29 12:32N 52°10' E 006°24'0 0.0
2015-Jul-29 11:33N 52°10' E 006°24'0 0.0
2015-Jul-29 10:31N 52°10' E 006°24'0 0.0
2015-Jul-29 09:33N 52°10' E 006°24'0 0.0
2015-Jul-29 08:32N 52°10' E 006°24'0 0.0
2015-Jul-29 07:33N 52°10' E 006°24'0 0.0
2015-Jul-29 06:33N 52°10' E 006°24'0 0.0
2015-Jul-29 05:33N 52°10' E 006°24'0 0.0
2015-Jul-29 04:32N 52°10' E 006°24'0 0.0
2015-Jul-29 03:33N 52°10' E 006°24'0 0.0
2015-Jul-29 02:33N 52°10' E 006°24'0 0.0
2015-Jul-29 01:32N 52°10' E 006°24'0 0.0
2015-Jul-29 00:33N 52°10' E 006°24'0 0.0
2015-Jul-28 23:33N 52°10' E 006°24'0 0.0
2015-Jul-28 22:32N 52°10' E 006°24'0 0.0
2015-Jul-28 21:32N 52°10' E 006°24'0 0.0
2015-Jul-28 20:33N 52°10' E 006°24'0 0.0
2015-Jul-28 19:33N 52°10' E 006°24'0 0.0
2015-Jul-28 18:32N 52°10' E 006°24'0 0.2
2015-Jul-28 17:33N 52°10' E 006°24'0 0.0
2015-Jul-28 16:33N 52°10' E 006°24'0 0.0
2015-Jul-28 15:32N 52°10' E 006°24'0 0.0
2015-Jul-28 14:32N 52°10' E 006°24'0 0.0
2015-Jul-28 13:33N 52°10' E 006°24'0 0.0
2015-Jul-28 12:33N 52°10' E 006°24'0 0.0
2015-Jul-28 11:33N 52°10' E 006°24'0 0.0
2015-Jul-28 10:32N 52°10' E 006°24'0 0.0
2015-Jul-28 09:33N 52°10' E 006°24'0 0.0
2015-Jul-28 08:33N 52°10' E 006°24'0 0.0
2015-Jul-28 07:33N 52°10' E 006°24'0 0.0
2015-Jul-28 06:32N 52°10' E 006°24'0 0.0
2015-Jul-28 05:33N 52°10' E 006°24'0 0.0
2015-Jul-28 04:33N 52°10' E 006°24'0 0.0
2015-Jul-28 03:33N 52°10' E 006°24'0 0.0
2015-Jul-28 02:32N 52°10' E 006°24'0 0.0
2015-Jul-28 01:33N 52°10' E 006°24'0 0.0
2015-Jul-28 00:33N 52°10' E 006°24'0 0.0
2015-Jul-27 23:33N 52°10' E 006°24'0 0.0
2015-Jul-27 22:32N 52°10' E 006°24'0 0.0
2015-Jul-27 21:33N 52°10' E 006°24'0 0.0
2015-Jul-27 20:33N 52°10' E 006°24'0 0.0
2015-Jul-27 19:34N 52°10' E 006°24'0 0.0
2015-Jul-27 18:32N 52°10' E 006°24'0 0.0
2015-Jul-27 17:33N 52°10' E 006°24'0 0.0
2015-Jul-27 16:33N 52°10' E 006°24'0 0.0
2015-Jul-27 15:29N 52°10' E 006°24'0 0.0
2015-Jul-27 14:32N 52°10' E 006°24'0 0.0
2015-Jul-27 13:33N 52°10' E 006°24'0 0.0
2015-Jul-27 12:33N 52°10' E 006°24'0 0.0
2015-Jul-27 11:32N 52°10' E 006°24'0 0.4
2015-Jul-27 10:32N 52°10' E 006°24'0 0.0
2015-Jul-27 09:33N 52°10' E 006°24'0 0.0
2015-Jul-27 08:33N 52°10' E 006°24'0 0.0
2015-Jul-27 07:32N 52°10' E 006°24'0 0.0
2015-Jul-27 06:33N 52°10' E 006°24'0 0.0
2015-Jul-27 05:33N 52°10' E 006°24'0 0.0
2015-Jul-27 04:33N 52°10' E 006°24'0 0.0
2015-Jul-27 03:32N 52°10' E 006°24'0 0.0
2015-Jul-27 02:33N 52°10' E 006°24'0 0.0
2015-Jul-27 01:33N 52°10' E 006°24'0 0.0
2015-Jul-27 00:33N 52°10' E 006°24'0 0.0
2015-Jul-26 23:32N 52°10' E 006°24'0 0.0
2015-Jul-26 22:33N 52°10' E 006°24'0 0.0
2015-Jul-26 21:33N 52°10' E 006°24'0 0.0
2015-Jul-26 20:30N 52°10' E 006°24'0 0.0
2015-Jul-26 19:32N 52°10' E 006°24'0 0.0
2015-Jul-26 18:33N 52°10' E 006°24'0 0.0
2015-Jul-26 17:33N 52°10' E 006°24'0 0.0
2015-Jul-26 16:33N 52°10' E 006°24'0 0.0
2015-Jul-26 15:32N 52°10' E 006°24'0 0.0
2015-Jul-26 14:32N 52°10' E 006°24'0 0.0
2015-Jul-26 13:33N 52°10' E 006°24'0 0.0
2015-Jul-26 12:33N 52°10' E 006°24'0 0.0
2015-Jul-26 11:32N 52°10' E 006°24'0 0.0
2015-Jul-26 10:33N 52°10' E 006°24'0 0.0
2015-Jul-26 09:33N 52°10' E 006°24'0 0.0
2015-Jul-26 08:33N 52°10' E 006°24'0 0.0
2015-Jul-26 07:32N 52°10' E 006°24'0 0.0
2015-Jul-26 06:33N 52°10' E 006°24'0 0.0
2015-Jul-26 05:33N 52°10' E 006°24'0 0.0
2015-Jul-26 04:32N 52°10' E 006°24'0 0.0
2015-Jul-26 03:32N 52°10' E 006°24'0 0.0
2015-Jul-26 02:33N 52°10' E 006°24'0 0.0
2015-Jul-26 01:33N 52°10' E 006°24'0 0.0
2015-Jul-26 00:32N 52°10' E 006°24'0 0.0
2015-Jul-25 23:32N 52°10' E 006°24'0 0.0
2015-Jul-25 22:33N 52°10' E 006°24'0 0.0
2015-Jul-25 21:33N 52°10' E 006°24'0 0.0
2015-Jul-25 20:32N 52°10' E 006°24'0 0.0
2015-Jul-25 19:32N 52°10' E 006°24'0 0.0
2015-Jul-25 18:33N 52°10' E 006°24'0 0.0
2015-Jul-25 17:33N 52°10' E 006°24'0 0.0
2015-Jul-25 16:32N 52°10' E 006°24'0 0.0
2015-Jul-25 15:33N 52°10' E 006°24'  
Track history (hours):
 
Tides and Currents Weather Stations Pressure Air Temp Water Temp Dewpoint Dewpoint Depression Visibility Wind Speed Wind Dir Waves Ship Positions

Hamaritha

Last reported at 2015-Aug-04 15:33 UTC. Time now 2015-Aug-04 15:55 UTC.
Position N 52°15' E 006°46'.

Length 86 m.

Type: Ship. MMSI: 244700691.

Date/timePositionNaut miles runAvg speedWind from/ knotsBaromVisibWave heightAir tempDewpointWater temp
2015-Aug-04 15:33N 52°15' E 006°46'4 1.4
2015-Aug-04 12:33N 52°15' E 006°40'7 5.3
2015-Aug-04 11:14N 52°11' E 006°30'4 5.2
2015-Aug-04 10:33N 52°10' E 006°24'7 3.4
2015-Aug-04 08:33N 52°10' E 006°13'16 3.9
2015-Aug-04 04:33N 51°58' E 005°56'4 4.2
2015-Aug-04 03:33N 51°58' E 005°49'0 0.0
2015-Aug-04 02:33N 51°58' E 005°49'0 0.0
2015-Aug-04 01:33N 51°58' E 005°49'0 0.0
2015-Aug-04 00:33N 51°58' E 005°49'0 0.0
2015-Aug-03 23:33N 51°58' E 005°49'0 0.0
2015-Aug-03 22:34N 51°58' E 005°49'0 0.0
2015-Aug-03 21:33N 51°58' E 005°49'0 0.0
2015-Aug-03 20:33N 51°58' E 005°49'0 0.0
2015-Aug-03 19:33N 51°58' E 005°49'0 0.0
2015-Aug-03 18:34N 51°58' E 005°49'0 0.0
2015-Aug-03 17:33N 51°58' E 005°49'0 0.0
2015-Aug-03 16:33N 51°58' E 005°49'0 0.0
2015-Aug-03 15:33N 51°58' E 005°49'1 0.5
2015-Aug-03 14:23N 51°58' E 005°48'21 5.1
2015-Aug-03 10:20N 51°59' E 005°14'4 4.9
2015-Aug-03 09:33N 51°59' E 005°08'2 1.7
2015-Aug-03 08:33N 52°00' E 005°06'6 6.0
2015-Aug-03 07:33N 51°58' E 004°57'7 7.1
2015-Aug-03 06:33N 51°55' E 004°46'8 7.5
2015-Aug-03 05:33N 51°54' E 004°34'7 7.4
2015-Aug-03 04:33N 51°54' E 004°22'5 5.5
2015-Aug-03 03:33N 51°54' E 004°13'5 4.6
2015-Aug-03 02:33N 51°56' E 004°07'1 1.0
2015-Aug-03 01:33N 51°57' E 004°07'0 0.0
2015-Aug-03 00:33N 51°57' E 004°07'0 0.0
2015-Aug-02 23:33N 51°57' E 004°07'0 0.0
2015-Aug-02 22:33N 51°57' E 004°07'2 1.7
2015-Aug-02 21:33N 51°56' E 004°09'0 0.0
2015-Aug-02 20:33N 51°56' E 004°09'0 0.0
2015-Aug-02 19:33N 51°56' E 004°09'0 0.0
2015-Aug-02 18:33N 51°56' E 004°09'0 0.0
2015-Aug-02 17:33N 51°56' E 004°09'0 0.0
2015-Aug-02 16:33N 51°56' E 004°09'0 0.0
2015-Aug-02 15:33N 51°56' E 004°09'0 0.0
2015-Aug-02 14:33N 51°56' E 004°09'0 0.0
2015-Aug-02 13:33N 51°56' E 004°09'0 0.0
2015-Aug-02 12:33N 51°56' E 004°09'0 0.0
2015-Aug-02 11:33N 51°56' E 004°09'0 0.0
2015-Aug-02 10:33N 51°56' E 004°09'0 0.0
2015-Aug-02 09:34N 51°56' E 004°09'0 0.0
2015-Aug-02 08:33N 51°56' E 004°09'0 0.0
2015-Aug-02 07:33N 51°56' E 004°09'0 0.0
2015-Aug-02 06:33N 51°56' E 004°09'0 0.0
2015-Aug-02 05:33N 51°56' E 004°09'0 0.0
2015-Aug-02 04:33N 51°56' E 004°09'0 0.0
2015-Aug-02 03:33N 51°56' E 004°09'0 0.0
2015-Aug-02 02:33N 51°56' E 004°09'0 0.0
2015-Aug-02 01:34N 51°56' E 004°09'0 0.0
2015-Aug-02 00:33N 51°56' E 004°09'0 0.0
2015-Aug-01 23:33N 51°56' E 004°09'0 0.0
2015-Aug-01 22:34N 51°56' E 004°09'0 0.0
2015-Aug-01 21:33N 51°56' E 004°09'0 0.0
2015-Aug-01 20:33N 51°56' E 004°09'0 0.0
2015-Aug-01 19:33N 51°56' E 004°09'0 0.0
2015-Aug-01 18:33N 51°56' E 004°09'0 0.0
2015-Aug-01 17:33N 51°56' E 004°09'0 0.0
2015-Aug-01 16:33N 51°56' E 004°09'0 0.0
2015-Aug-01 15:33N 51°56' E 004°09'0 0.0
2015-Aug-01 14:33N 51°56' E 004°09'0 0.0
2015-Aug-01 13:33N 51°56' E 004°09'0 0.0
2015-Aug-01 12:33N 51°56' E 004°09'7 6.5
2015-Aug-01 11:33N 51°52' E 004°17'4 3.9
2015-Aug-01 10:33N 51°49' E 004°21'5 5.1
2015-Aug-01 09:33N 51°46' E 004°15'7 3.3
2015-Aug-01 07:30N 51°39' E 004°20'6 6.8
2015-Aug-01 06:33N 51°35' E 004°12'7 7.4
2015-Aug-01 05:33N 51°28' E 004°14'0 0.0
2015-Aug-01 04:33N 51°28' E 004°14'0 0.0
2015-Aug-01 03:33N 51°28' E 004°14'0 0.0
2015-Aug-01 02:33N 51°28' E 004°14'0 0.0
2015-Jul-31 20:23N 51°28' E 004°14'0 0.0
2015-Jul-31 19:17N 51°28' E 004°14'1 0.9
2015-Jul-31 18:34N 51°27' E 004°14'7 6.5
2015-Jul-31 17:32N 51°21' E 004°18'1 1.2
2015-Jul-31 16:34N 51°20' E 004°18'0 0.0
2015-Jul-31 15:33N 51°20' E 004°18'0 0.0
2015-Jul-31 14:33N 51°20' E 004°18'0 0.0
2015-Jul-31 13:33N 51°20' E 004°18'0 0.0
2015-Jul-31 12:33N 51°20' E 004°18'0 0.0
2015-Jul-31 11:33N 51°20' E 004°18'0 0.0
2015-Jul-31 10:33N 51°20' E 004°18'2 1.8
2015-Jul-31 09:33N 51°21' E 004°18'6 5.8
2015-Jul-31 08:31N 51°27' E 004°14'5 5.2
2015-Jul-31 07:29N 51°32' E 004°14'6 6.0
2015-Jul-31 06:33N 51°38' E 004°13'11 5.4
2015-Jul-31 04:33N 51°42' E 004°29'6 5.5
2015-Jul-31 03:32N 51°43' E 004°38'0 0.0
2015-Jul-31 02:33N 51°43' E 004°38'0 0.0
2015-Jul-31 01:33N 51°43' E 004°38'0 0.0
2015-Jul-31 00:33N 51°43' E 004°38'0 0.0
2015-Jul-30 23:33N 51°43' E 004°38'0 0.0
2015-Jul-30 22:33N 51°43' E 004°38'0 0.1
2015-Jul-30 21:33N 51°43' E 004°38'5 5.3
2015-Jul-30 20:33N 51°46' E 004°45'7 6.8
2015-Jul-30 19:32N 51°50' E 004°54'16 7.9
2015-Jul-30 17:33N 51°49' E 005°20'30 4.2
2015-Jul-30 10:23N 51°60' E 006°06'3 3.2
2015-Jul-30 09:22N 52°03' E 006°07'3 4.1
2015-Jul-30 08:32N 52°05' E 006°10'5 3.1
2015-Jul-30 07:04N 52°10' E 006°11'5 3.4
2015-Jul-30 05:34N 52°10' E 006°20'6 5.5
2015-Jul-30 04:29N 52°11' E 006°29'5 5.2
2015-Jul-30 03:34N 52°14' E 006°36'4 3.8
2015-Jul-30 02:31N 52°15' E 006°42'4 3.9
2015-Jul-30 01:33N 52°15' E 006°48'0 0.0
2015-Jul-30 00:32N 52°15' E 006°48'0 0.0
2015-Jul-29 23:32N 52°15' E 006°48'0 0.0
2015-Jul-29 22:33N 52°15' E 006°48'0 0.0
2015-Jul-29 21:33N 52°15' E 006°48'0 0.0
2015-Jul-29 20:33N 52°15' E 006°48'0 0.0
2015-Jul-29 19:32N 52°15' E 006°48'0 0.0
2015-Jul-29 18:32N 52°15' E 006°48'5 3.4
2015-Jul-29 17:07N 52°15' E 006°40'4 7.4
2015-Jul-29 16:33N 52°13' E 006°34'7 6.7
2015-Jul-29 15:33N 52°10' E 006°24'0 0.0
2015-Jul-29 14:33N 52°10' E 006°24'0 0.0
2015-Jul-29 13:33N 52°10' E 006°24'0 0.0
2015-Jul-29 12:32N 52°10' E 006°24'0 0.0
2015-Jul-29 11:33N 52°10' E 006°24'0 0.0
2015-Jul-29 10:31N 52°10' E 006°24'0 0.0
2015-Jul-29 09:33N 52°10' E 006°24'0 0.0
2015-Jul-29 08:32N 52°10' E 006°24'0 0.0
2015-Jul-29 07:33N 52°10' E 006°24'0 0.0
2015-Jul-29 06:33N 52°10' E 006°24'0 0.0
2015-Jul-29 05:33N 52°10' E 006°24'0 0.0
2015-Jul-29 04:32N 52°10' E 006°24'0 0.0
2015-Jul-29 03:33N 52°10' E 006°24'0 0.0
2015-Jul-29 02:33N 52°10' E 006°24'0 0.0
2015-Jul-29 01:32N 52°10' E 006°24'0 0.0
2015-Jul-29 00:33N 52°10' E 006°24'0 0.0
2015-Jul-28 23:33N 52°10' E 006°24'0 0.0
2015-Jul-28 22:32N 52°10' E 006°24'0 0.0
2015-Jul-28 21:32N 52°10' E 006°24'0 0.0
2015-Jul-28 20:33N 52°10' E 006°24'0 0.0
2015-Jul-28 19:33N 52°10' E 006°24'0 0.0
2015-Jul-28 18:32N 52°10' E 006°24'0 0.2
2015-Jul-28 17:33N 52°10' E 006°24'0 0.0
2015-Jul-28 16:33N 52°10' E 006°24'0 0.0
2015-Jul-28 15:32N 52°10' E 006°24'0 0.0
2015-Jul-28 14:32N 52°10' E 006°24'0 0.0
2015-Jul-28 13:33N 52°10' E 006°24'0 0.0
2015-Jul-28 12:33N 52°10' E 006°24'0 0.0
2015-Jul-28 11:33N 52°10' E 006°24'0 0.0
2015-Jul-28 10:32N 52°10' E 006°24'0 0.0
2015-Jul-28 09:33N 52°10' E 006°24'0 0.0
2015-Jul-28 08:33N 52°10' E 006°24'0 0.0
2015-Jul-28 07:33N 52°10' E 006°24'0 0.0
2015-Jul-28 06:32N 52°10' E 006°24'0 0.0
2015-Jul-28 05:33N 52°10' E 006°24'0 0.0
2015-Jul-28 04:33N 52°10' E 006°24'0 0.0
2015-Jul-28 03:33N 52°10' E 006°24'0 0.0
2015-Jul-28 02:32N 52°10' E 006°24'0 0.0
2015-Jul-28 01:33N 52°10' E 006°24'0 0.0
2015-Jul-28 00:33N 52°10' E 006°24'0 0.0
2015-Jul-27 23:33N 52°10' E 006°24'0 0.0
2015-Jul-27 22:32N 52°10' E 006°24'0 0.0
2015-Jul-27 21:33N 52°10' E 006°24'0 0.0
2015-Jul-27 20:33N 52°10' E 006°24'0 0.0
2015-Jul-27 19:34N 52°10' E 006°24'0 0.0
2015-Jul-27 18:32N 52°10' E 006°24'0 0.0
2015-Jul-27 17:33N 52°10' E 006°24'0 0.0
2015-Jul-27 16:33N 52°10' E 006°24'0 0.0
2015-Jul-27 15:29N 52°10' E 006°24'0 0.0
2015-Jul-27 14:32N 52°10' E 006°24'0 0.0
2015-Jul-27 13:33N 52°10' E 006°24'0 0.0
2015-Jul-27 12:33N 52°10' E 006°24'0 0.0
2015-Jul-27 11:32N 52°10' E 006°24'0 0.4
2015-Jul-27 10:32N 52°10' E 006°24'0 0.0
2015-Jul-27 09:33N 52°10' E 006°24'0 0.0
2015-Jul-27 08:33N 52°10' E 006°24'0 0.0
2015-Jul-27 07:32N 52°10' E 006°24'0 0.0
2015-Jul-27 06:33N 52°10' E 006°24'0 0.0
2015-Jul-27 05:33N 52°10' E 006°24'0 0.0
2015-Jul-27 04:33N 52°10' E 006°24'0 0.0
2015-Jul-27 03:32N 52°10' E 006°24'0 0.0
2015-Jul-27 02:33N 52°10' E 006°24'0 0.0
2015-Jul-27 01:33N 52°10' E 006°24'0 0.0
2015-Jul-27 00:33N 52°10' E 006°24'0 0.0
2015-Jul-26 23:32N 52°10' E 006°24'0 0.0
2015-Jul-26 22:33N 52°10' E 006°24'0 0.0
2015-Jul-26 21:33N 52°10' E 006°24'0 0.0
2015-Jul-26 20:30N 52°10' E 006°24'0 0.0
2015-Jul-26 19:32N 52°10' E 006°24'0 0.0
2015-Jul-26 18:33N 52°10' E 006°24'0 0.0
2015-Jul-26 17:33N 52°10' E 006°24'0 0.0
2015-Jul-26 16:33N 52°10' E 006°24'0 0.0
2015-Jul-26 15:32N 52°10' E 006°24'0 0.0
2015-Jul-26 14:32N 52°10' E 006°24'0 0.0
2015-Jul-26 13:33N 52°10' E 006°24'0 0.0
2015-Jul-26 12:33N 52°10' E 006°24'0 0.0
2015-Jul-26 11:32N 52°10' E 006°24'0 0.0
2015-Jul-26 10:33N 52°10' E 006°24'0 0.0
2015-Jul-26 09:33N 52°10' E 006°24'0 0.0
2015-Jul-26 08:33N 52°10' E 006°24'0 0.0
2015-Jul-26 07:32N 52°10' E 006°24'0 0.0
2015-Jul-26 06:33N 52°10' E 006°24'0 0.0
2015-Jul-26 05:33N 52°10' E 006°24'0 0.0
2015-Jul-26 04:32N 52°10' E 006°24'0 0.0
2015-Jul-26 03:32N 52°10' E 006°24'0 0.0
2015-Jul-26 02:33N 52°10' E 006°24'0 0.0
2015-Jul-26 01:33N 52°10' E 006°24'0 0.0
2015-Jul-26 00:32N 52°10' E 006°24'0 0.0
2015-Jul-25 23:32N 52°10' E 006°24'0 0.0
2015-Jul-25 22:33N 52°10' E 006°24'0 0.0
2015-Jul-25 21:33N 52°10' E 006°24'0 0.0
2015-Jul-25 20:32N 52°10' E 006°24'0 0.0
2015-Jul-25 19:32N 52°10' E 006°24'0 0.0
2015-Jul-25 18:33N 52°10' E 006°24'0 0.0
2015-Jul-25 17:33N 52°10' E 006°24'0 0.0
2015-Jul-25 16:32N 52°10' E 006°24'0 0.0
2015-Jul-25 15:33N 52°10' E 006°24'  

Dump ship's entire track history